Bay Bridge — 3FCS5 — position and weather

sailwx.info

Track history (hours):
 
Tides and Currents Weather Stations Pressure Air Temp Water Temp Dewpoint Dewpoint Depression Visibility Wind Speed Wind Dir Waves Ship Positions

Bay Bridge

Last reported at 2014-Dec-21 10:15 UTC. Time now 2014-Dec-22 17:02 UTC.
Position N 29°40' E 122°40'.

Length 267 m; draft 12.5 m.

Type: Ship (hazmat cat A). MMSI: 354120000.

Date/timePositionNaut miles runAvg speedWind from/ knotsBaromVisibWave heightAir tempDewpointWater temp
2014-Dec-21 10:15N 29°40' E 122°40'1419.6
2014-Dec-21 09:33N 29°43' E 122°25'1312.9
2014-Dec-21 08:33N 29°50' E 122°13'1413.6
2014-Dec-21 07:33N 29°57' E 121°59'8 2.4
2014-Dec-21 04:24N 29°57' E 121°50'0 0.0
2014-Dec-21 03:06N 29°57' E 121°50'0 0.0
2014-Dec-21 01:30N 29°57' E 121°50'0 0.0
2014-Dec-21 00:24N 29°57' E 121°50'0 0.0
2014-Dec-20 23:06N 29°57' E 121°50'0 0.0
2014-Dec-20 21:30N 29°57' E 121°50'0 0.0
2014-Dec-20 20:24N 29°57' E 121°50'0 0.0
2014-Dec-20 19:33N 29°57' E 121°50'0 0.0
2014-Dec-20 18:33N 29°57' E 121°50'0 0.0
2014-Dec-20 17:27N 29°57' E 121°50'0 0.0
2014-Dec-20 16:33N 29°57' E 121°50'0 0.0
2014-Dec-20 15:33N 29°57' E 121°50'0 0.0
2014-Dec-20 14:33N 29°57' E 121°50'0 0.0
2014-Dec-20 13:33N 29°57' E 121°50'0 0.0
2014-Dec-20 12:33N 29°57' E 121°50'5 5.4
2014-Dec-20 11:33N 29°58' E 121°56'1312.9
2014-Dec-20 10:33N 29°54' E 122°11'1111.3
2014-Dec-20 09:33N 29°45' E 122°19'9 8.4
2014-Dec-20 08:32N 29°44' E 122°28'2 1.4
2014-Dec-20 07:06N 29°46' E 122°29'0 0.0
2014-Dec-20 05:18N 29°46' E 122°29'0 0.0
2014-Dec-20 04:12N 29°46' E 122°29'0 0.1
2014-Dec-20 00:24N 29°46' E 122°29'0 0.0
2014-Dec-19 22:30N 29°46' E 122°29'0 0.0
2014-Dec-19 21:06N 29°46' E 122°29'0 0.1
2014-Dec-19 20:06N 29°46' E 122°29'0 0.1
2014-Dec-19 19:12N 29°46' E 122°29'0 0.0
2014-Dec-19 18:30N 29°46' E 122°29'0 0.0
2014-Dec-19 17:30N 29°46' E 122°29'0 0.0
2014-Dec-19 16:24N 29°46' E 122°29'0 0.0
2014-Dec-19 10:24N 29°46' E 122°29'0 0.0
2014-Dec-19 06:18N 29°46' E 122°29'0 0.0
2014-Dec-19 05:06N 29°46' E 122°29'0 0.0
2014-Dec-19 00:21N 29°46' E 122°29'6 8.0
2014-Dec-18 23:33N 29°41' E 122°34'1919.3
2014-Dec-18 22:33N 29°53' E 122°52'7912.7
2014-Dec-18 16:21N 31°06' E 122°20'1012.0
2014-Dec-18 15:33N 31°11' E 122°10'1010.5
2014-Dec-18 14:33N 31°15' E 121°59'9 9.1
2014-Dec-18 13:34N 31°17' E 121°49'8 8.3
2014-Dec-18 12:34N 31°20' E 121°40'0 0.2
2014-Dec-18 11:31N 31°20' E 121°39'0 0.0
2014-Dec-18 10:31N 31°20' E 121°39'0 0.0
2014-Dec-18 09:31N 31°20' E 121°39'0 0.0
2014-Dec-18 08:31N 31°20' E 121°39'0 0.0
2014-Dec-18 07:31N 31°20' E 121°39'0 0.0
2014-Dec-18 06:28N 31°20' E 121°39'0 0.0
2014-Dec-18 05:31N 31°20' E 121°39'0 0.0
2014-Dec-18 04:28N 31°20' E 121°39'0 0.0
2014-Dec-18 03:31N 31°20' E 121°39'0 0.0
2014-Dec-18 02:31N 31°20' E 121°39'0 0.0
2014-Dec-18 01:31N 31°20' E 121°39'0 0.0
2014-Dec-18 00:31N 31°20' E 121°39'0 0.0
2014-Dec-17 23:31N 31°20' E 121°39'0 0.0
2014-Dec-17 22:31N 31°20' E 121°39'0 0.0
2014-Dec-17 21:31N 31°20' E 121°39'0 0.0
2014-Dec-17 20:31N 31°20' E 121°39'0 0.0
2014-Dec-17 19:31N 31°20' E 121°39'0 0.0
2014-Dec-17 18:31N 31°20' E 121°39'0 0.0
2014-Dec-17 17:31N 31°20' E 121°39'0 0.0
2014-Dec-17 16:28N 31°20' E 121°39'0 0.0
2014-Dec-17 15:31N 31°20' E 121°39'0 0.0
2014-Dec-17 14:31N 31°20' E 121°39'0 0.0
2014-Dec-17 13:28N 31°20' E 121°39'0 0.0
2014-Dec-17 12:31N 31°20' E 121°39'0 0.2
2014-Dec-17 11:34N 31°20' E 121°39'10 9.5
2014-Dec-17 10:33N 31°17' E 121°50'1211.7
2014-Dec-17 09:34N 31°14' E 122°03'1110.8
2014-Dec-17 08:34N 31°09' E 122°14'1312.9
2014-Dec-17 07:34N 31°07' E 122°29'30712.7
2014-Dec-16 07:23N 35°58' E 120°34'1517.5
2014-Dec-16 06:34N 36°02' E 120°16'4 0.1
2014-Dec-14 23:15N 36°00' E 120°12'4 5.6
2014-Dec-14 22:33N 36°02' E 120°16'1111.2
2014-Dec-14 21:33N 36°00' E 120°29'  
2014-Dec-11 12:33N 34°60' E 139°40'1313.3
2014-Dec-11 11:34N 35°12' E 139°46'1110.9
2014-Dec-11 10:34N 35°23' E 139°42'  
Track history (hours):
 
Tides and Currents Weather Stations Pressure Air Temp Water Temp Dewpoint Dewpoint Depression Visibility Wind Speed Wind Dir Waves Ship Positions

Bay Bridge

Last reported at 2014-Dec-21 10:15 UTC. Time now 2014-Dec-22 17:02 UTC.
Position N 29°40' E 122°40'.

Length 267 m; draft 12.5 m.

Type: Ship (hazmat cat A). MMSI: 354120000.

Date/timePositionNaut miles runAvg speedWind from/ knotsBaromVisibWave heightAir tempDewpointWater temp
2014-Dec-21 10:15N 29°40' E 122°40'1419.6
2014-Dec-21 09:33N 29°43' E 122°25'1312.9
2014-Dec-21 08:33N 29°50' E 122°13'1413.6
2014-Dec-21 07:33N 29°57' E 121°59'8 2.4
2014-Dec-21 04:24N 29°57' E 121°50'0 0.0
2014-Dec-21 03:06N 29°57' E 121°50'0 0.0
2014-Dec-21 01:30N 29°57' E 121°50'0 0.0
2014-Dec-21 00:24N 29°57' E 121°50'0 0.0
2014-Dec-20 23:06N 29°57' E 121°50'0 0.0
2014-Dec-20 21:30N 29°57' E 121°50'0 0.0
2014-Dec-20 20:24N 29°57' E 121°50'0 0.0
2014-Dec-20 19:33N 29°57' E 121°50'0 0.0
2014-Dec-20 18:33N 29°57' E 121°50'0 0.0
2014-Dec-20 17:27N 29°57' E 121°50'0 0.0
2014-Dec-20 16:33N 29°57' E 121°50'0 0.0
2014-Dec-20 15:33N 29°57' E 121°50'0 0.0
2014-Dec-20 14:33N 29°57' E 121°50'0 0.0
2014-Dec-20 13:33N 29°57' E 121°50'0 0.0
2014-Dec-20 12:33N 29°57' E 121°50'5 5.4
2014-Dec-20 11:33N 29°58' E 121°56'1312.9
2014-Dec-20 10:33N 29°54' E 122°11'1111.3
2014-Dec-20 09:33N 29°45' E 122°19'9 8.4
2014-Dec-20 08:32N 29°44' E 122°28'2 1.4
2014-Dec-20 07:06N 29°46' E 122°29'0 0.0
2014-Dec-20 05:18N 29°46' E 122°29'0 0.0
2014-Dec-20 04:12N 29°46' E 122°29'0 0.1
2014-Dec-20 00:24N 29°46' E 122°29'0 0.0
2014-Dec-19 22:30N 29°46' E 122°29'0 0.0
2014-Dec-19 21:06N 29°46' E 122°29'0 0.1
2014-Dec-19 20:06N 29°46' E 122°29'0 0.1
2014-Dec-19 19:12N 29°46' E 122°29'0 0.0
2014-Dec-19 18:30N 29°46' E 122°29'0 0.0
2014-Dec-19 17:30N 29°46' E 122°29'0 0.0
2014-Dec-19 16:24N 29°46' E 122°29'0 0.0
2014-Dec-19 10:24N 29°46' E 122°29'0 0.0
2014-Dec-19 06:18N 29°46' E 122°29'0 0.0
2014-Dec-19 05:06N 29°46' E 122°29'0 0.0
2014-Dec-19 00:21N 29°46' E 122°29'6 8.0
2014-Dec-18 23:33N 29°41' E 122°34'1919.3
2014-Dec-18 22:33N 29°53' E 122°52'7912.7
2014-Dec-18 16:21N 31°06' E 122°20'1012.0
2014-Dec-18 15:33N 31°11' E 122°10'1010.5
2014-Dec-18 14:33N 31°15' E 121°59'9 9.1
2014-Dec-18 13:34N 31°17' E 121°49'8 8.3
2014-Dec-18 12:34N 31°20' E 121°40'0 0.2
2014-Dec-18 11:31N 31°20' E 121°39'0 0.0
2014-Dec-18 10:31N 31°20' E 121°39'0 0.0
2014-Dec-18 09:31N 31°20' E 121°39'0 0.0
2014-Dec-18 08:31N 31°20' E 121°39'0 0.0
2014-Dec-18 07:31N 31°20' E 121°39'0 0.0
2014-Dec-18 06:28N 31°20' E 121°39'0 0.0
2014-Dec-18 05:31N 31°20' E 121°39'0 0.0
2014-Dec-18 04:28N 31°20' E 121°39'0 0.0
2014-Dec-18 03:31N 31°20' E 121°39'0 0.0
2014-Dec-18 02:31N 31°20' E 121°39'0 0.0
2014-Dec-18 01:31N 31°20' E 121°39'0 0.0
2014-Dec-18 00:31N 31°20' E 121°39'0 0.0
2014-Dec-17 23:31N 31°20' E 121°39'0 0.0
2014-Dec-17 22:31N 31°20' E 121°39'0 0.0
2014-Dec-17 21:31N 31°20' E 121°39'0 0.0
2014-Dec-17 20:31N 31°20' E 121°39'0 0.0
2014-Dec-17 19:31N 31°20' E 121°39'0 0.0
2014-Dec-17 18:31N 31°20' E 121°39'0 0.0
2014-Dec-17 17:31N 31°20' E 121°39'0 0.0
2014-Dec-17 16:28N 31°20' E 121°39'0 0.0
2014-Dec-17 15:31N 31°20' E 121°39'0 0.0
2014-Dec-17 14:31N 31°20' E 121°39'0 0.0
2014-Dec-17 13:28N 31°20' E 121°39'0 0.0
2014-Dec-17 12:31N 31°20' E 121°39'0 0.2
2014-Dec-17 11:34N 31°20' E 121°39'10 9.5
2014-Dec-17 10:33N 31°17' E 121°50'1211.7
2014-Dec-17 09:34N 31°14' E 122°03'1110.8
2014-Dec-17 08:34N 31°09' E 122°14'1312.9
2014-Dec-17 07:34N 31°07' E 122°29'30712.7
2014-Dec-16 07:23N 35°58' E 120°34'1517.5
2014-Dec-16 06:34N 36°02' E 120°16'4 0.1
2014-Dec-14 23:15N 36°00' E 120°12'4 5.6
2014-Dec-14 22:33N 36°02' E 120°16'1111.2
2014-Dec-14 21:33N 36°00' E 120°29'  
2014-Dec-11 12:33N 34°60' E 139°40'1313.3
2014-Dec-11 11:34N 35°12' E 139°46'1110.9
2014-Dec-11 10:34N 35°23' E 139°42'  

Dump ship's entire track history